WZZ1WH LDDU-LJLJ
Flight info
| Callsign | WZZ1WH |
|---|---|
| Flight time | 0h 53m |
| Altitude | 38000 |
| Route | AMUGO1V/29 AMUGO L611 UVODI L862 GISER L868 DARZA |
| Aircraft | A320/M-SDE3FGHIRWY/L |
Departure
| Time | 2026-04-27 15:56 |
|---|---|
| Airport | Dubrovnik Ruđer Bošković Airport (LDDU) |
Arrival
| Time | 2026-04-27 16:50 |
|---|---|
| Airport | Ljubljana Jože Pučnik Airport (LJLJ) |
| Time | Latitude | Longitude | Altitude | Speed | Heading |
|---|---|---|---|---|---|
| 2026-04-27 15:33 | 42.55930 | 18.26692 | 519 ft | 0 kts | 207° |
| 2026-04-27 15:49 | 42.55936 | 18.26696 | 518 ft | 2 kts | 207° |
| 2026-04-27 15:49 | 42.55954 | 18.26709 | 518 ft | 3 kts | 207° |
| 2026-04-27 15:50 | 42.55970 | 18.26721 | 519 ft | 3 kts | 195° |
| 2026-04-27 15:50 | 42.55985 | 18.26721 | 519 ft | 3 kts | 138° |
| 2026-04-27 15:50 | 42.55994 | 18.26705 | 519 ft | 1 kts | 117° |
| 2026-04-27 15:50 | 42.56001 | 18.26688 | 519 ft | 2 kts | 117° |
| 2026-04-27 15:51 | 42.56004 | 18.26680 | 519 ft | 0 kts | 117° |
| 2026-04-27 15:53 | 42.55999 | 18.26695 | 519 ft | 5 kts | 116° |
| 2026-04-27 15:53 | 42.55969 | 18.26773 | 518 ft | 13 kts | 118° |
| 2026-04-27 15:53 | 42.55913 | 18.26914 | 517 ft | 20 kts | 118° |
| 2026-04-27 15:54 | 42.55841 | 18.27093 | 515 ft | 23 kts | 118° |
| 2026-04-27 15:54 | 42.55762 | 18.27295 | 513 ft | 27 kts | 118° |
| 2026-04-27 15:54 | 42.55666 | 18.27539 | 510 ft | 30 kts | 118° |
| 2026-04-27 15:54 | 42.55559 | 18.27802 | 508 ft | 33 kts | 118° |
| 2026-04-27 15:55 | 42.55474 | 18.28026 | 506 ft | 22 kts | 111° |
| 2026-04-27 15:55 | 42.55503 | 18.28143 | 506 ft | 22 kts | 31° |
| 2026-04-27 15:55 | 42.55623 | 18.28125 | 506 ft | 16 kts | 295° |
| 2026-04-27 15:55 | 42.55690 | 18.27958 | 507 ft | 35 kts | 297° |
| 2026-04-27 15:56 | 42.55921 | 18.27372 | 512 ft | 102 kts | 298° |
| 2026-04-27 15:56 | 42.56344 | 18.26310 | 545 ft | 149 kts | 299° |
| 2026-04-27 15:56 | 42.56841 | 18.25092 | 1143 ft | 147 kts | 299° |
| 2026-04-27 15:56 | 42.57333 | 18.23863 | 1732 ft | 153 kts | 298° |
| 2026-04-27 15:57 | 42.57877 | 18.22484 | 2031 ft | 177 kts | 298° |
| 2026-04-27 15:57 | 42.58279 | 18.21463 | 2268 ft | 193 kts | 298° |
| 2026-04-27 15:57 | 42.59191 | 18.19150 | 2727 ft | 226 kts | 298° |
| 2026-04-27 15:57 | 42.59973 | 18.17166 | 3217 ft | 250 kts | 298° |
| 2026-04-27 15:58 | 42.60812 | 18.15038 | 4032 ft | 260 kts | 298° |
| 2026-04-27 15:58 | 42.61676 | 18.12851 | 4981 ft | 265 kts | 298° |
| 2026-04-27 15:58 | 42.62257 | 18.11379 | 5609 ft | 268 kts | 298° |
| 2026-04-27 15:58 | 42.62997 | 18.09034 | 6522 ft | 275 kts | 283° |
| 2026-04-27 15:59 | 42.63015 | 18.06436 | 7375 ft | 281 kts | 259° |
| 2026-04-27 15:59 | 42.62564 | 18.03831 | 8286 ft | 284 kts | 257° |
| 2026-04-27 15:59 | 42.62093 | 18.01209 | 9184 ft | 288 kts | 256° |
| 2026-04-27 15:59 | 42.61613 | 17.98542 | 10065 ft | 292 kts | 256° |
| 2026-04-27 16:00 | 42.61115 | 17.95780 | 10464 ft | 313 kts | 256° |
| 2026-04-27 16:00 | 42.60589 | 17.92831 | 10913 ft | 327 kts | 257° |
| 2026-04-27 16:00 | 42.60058 | 17.89834 | 11607 ft | 333 kts | 257° |
| 2026-04-27 16:00 | 42.59515 | 17.86761 | 12400 ft | 336 kts | 257° |
| 2026-04-27 16:01 | 42.58967 | 17.83671 | 13210 ft | 338 kts | 257° |
| 2026-04-27 16:01 | 42.58409 | 17.80547 | 13984 ft | 341 kts | 257° |
| 2026-04-27 16:01 | 42.57844 | 17.77401 | 14678 ft | 344 kts | 257° |
| 2026-04-27 16:01 | 42.57275 | 17.74236 | 15365 ft | 347 kts | 257° |
| 2026-04-27 16:02 | 42.56698 | 17.71042 | 16033 ft | 350 kts | 257° |
| 2026-04-27 16:02 | 42.56124 | 17.67862 | 16700 ft | 353 kts | 257° |
| 2026-04-27 16:02 | 42.55546 | 17.64609 | 17371 ft | 356 kts | 260° |
| 2026-04-27 16:02 | 42.55322 | 17.61269 | 18033 ft | 357 kts | 273° |
| 2026-04-27 16:03 | 42.55675 | 17.57931 | 18658 ft | 359 kts | 286° |
| 2026-04-27 16:03 | 42.56587 | 17.54777 | 19282 ft | 361 kts | 298° |
| 2026-04-27 16:03 | 42.57987 | 17.51942 | 19939 ft | 362 kts | 307° |
| 2026-04-27 16:03 | 42.59487 | 17.49244 | 20598 ft | 363 kts | 307° |
| 2026-04-27 16:04 | 42.61006 | 17.46494 | 21246 ft | 365 kts | 307° |
| 2026-04-27 16:04 | 42.62530 | 17.43722 | 21875 ft | 366 kts | 306° |
| 2026-04-27 16:04 | 42.64056 | 17.40942 | 22494 ft | 368 kts | 306° |
| 2026-04-27 16:04 | 42.65590 | 17.38146 | 23119 ft | 370 kts | 307° |
| 2026-04-27 16:05 | 42.67134 | 17.35331 | 23717 ft | 373 kts | 307° |
| 2026-04-27 16:05 | 42.68687 | 17.32504 | 24223 ft | 375 kts | 307° |
| 2026-04-27 16:05 | 42.70253 | 17.29651 | 24714 ft | 377 kts | 307° |
| 2026-04-27 16:05 | 42.71829 | 17.26777 | 25191 ft | 380 kts | 307° |
| 2026-04-27 16:06 | 42.73389 | 17.23925 | 25638 ft | 383 kts | 307° |
| 2026-04-27 16:06 | 42.74984 | 17.21008 | 26094 ft | 385 kts | 307° |
| 2026-04-27 16:06 | 42.76587 | 17.18072 | 26555 ft | 388 kts | 307° |
| 2026-04-27 16:06 | 42.78200 | 17.15114 | 27002 ft | 390 kts | 307° |
| 2026-04-27 16:07 | 42.79822 | 17.12139 | 27438 ft | 392 kts | 307° |
| 2026-04-27 16:07 | 42.81454 | 17.09141 | 27864 ft | 395 kts | 307° |
| 2026-04-27 16:07 | 42.83091 | 17.06126 | 28285 ft | 397 kts | 307° |
| 2026-04-27 16:07 | 42.84740 | 17.03083 | 28675 ft | 400 kts | 307° |
| 2026-04-27 16:08 | 42.86377 | 17.00066 | 29063 ft | 403 kts | 307° |
| 2026-04-27 16:08 | 42.88050 | 16.96991 | 29468 ft | 405 kts | 307° |
| 2026-04-27 16:08 | 42.89735 | 16.93896 | 29877 ft | 408 kts | 307° |
| 2026-04-27 16:08 | 42.91427 | 16.90781 | 30261 ft | 410 kts | 307° |
| 2026-04-27 16:09 | 42.93128 | 16.87637 | 30607 ft | 412 kts | 307° |
| 2026-04-27 16:09 | 42.96544 | 16.81295 | 31305 ft | 417 kts | 307° |
| 2026-04-27 16:09 | 42.98266 | 16.78089 | 31641 ft | 419 kts | 307° |
| 2026-04-27 16:10 | 43.01726 | 16.71662 | 32478 ft | 419 kts | 307° |
| 2026-04-27 16:10 | 43.05150 | 16.65289 | 33351 ft | 418 kts | 308° |
| 2026-04-27 16:11 | 43.06871 | 16.62076 | 33809 ft | 418 kts | 308° |
| 2026-04-27 16:11 | 43.10521 | 16.55923 | 34641 ft | 414 kts | 318° |
| 2026-04-27 16:12 | 43.15300 | 16.51602 | 35366 ft | 413 kts | 335° |
| 2026-04-27 16:12 | 43.17923 | 16.50007 | 35722 ft | 412 kts | 335° |
| 2026-04-27 16:12 | 43.23128 | 16.46837 | 36421 ft | 412 kts | 335° |
| 2026-04-27 16:13 | 43.25745 | 16.45231 | 36745 ft | 412 kts | 335° |
| 2026-04-27 16:13 | 43.30968 | 16.42015 | 37384 ft | 411 kts | 335° |
| 2026-04-27 16:13 | 43.33576 | 16.40408 | 37702 ft | 411 kts | 335° |
| 2026-04-27 16:14 | 43.38792 | 16.37190 | 38077 ft | 411 kts | 335° |
| 2026-04-27 16:14 | 43.44003 | 16.33976 | 38083 ft | 410 kts | 335° |
| 2026-04-27 16:15 | 43.54307 | 16.27363 | 38084 ft | 409 kts | 332° |
| 2026-04-27 16:16 | 43.64406 | 16.20092 | 38070 ft | 409 kts | 332° |
| 2026-04-27 16:17 | 43.74555 | 16.12919 | 38081 ft | 410 kts | 332° |
| 2026-04-27 16:18 | 43.84680 | 16.05764 | 38073 ft | 410 kts | 332° |
| 2026-04-27 16:19 | 43.89753 | 16.02152 | 38084 ft | 410 kts | 332° |
| 2026-04-27 16:20 | 43.99913 | 15.94911 | 38077 ft | 410 kts | 332° |
| 2026-04-27 16:21 | 44.07501 | 15.89471 | 38088 ft | 410 kts | 332° |
| 2026-04-27 16:22 | 44.17630 | 15.82193 | 38094 ft | 411 kts | 332° |
| 2026-04-27 16:22 | 44.25258 | 15.76707 | 38075 ft | 411 kts | 332° |
| 2026-04-27 16:23 | 44.32906 | 15.71201 | 36761 ft | 418 kts | 332° |
| 2026-04-27 16:23 | 44.35490 | 15.69336 | 36260 ft | 415 kts | 332° |
| 2026-04-27 16:24 | 44.38043 | 15.67491 | 35826 ft | 411 kts | 332° |
| 2026-04-27 16:24 | 44.43080 | 15.63828 | 34916 ft | 405 kts | 332° |
| 2026-04-27 16:25 | 44.48054 | 15.60213 | 33971 ft | 401 kts | 332° |
| 2026-04-27 16:25 | 44.52937 | 15.56657 | 32993 ft | 393 kts | 332° |
| 2026-04-27 16:26 | 44.57747 | 15.53133 | 32090 ft | 387 kts | 332° |
| 2026-04-27 16:26 | 44.62481 | 15.49663 | 31206 ft | 381 kts | 332° |
| 2026-04-27 16:27 | 44.67141 | 15.46257 | 30364 ft | 375 kts | 333° |
| 2026-04-27 16:27 | 44.73998 | 15.41225 | 29124 ft | 365 kts | 332° |
| 2026-04-27 16:28 | 44.78433 | 15.37960 | 28373 ft | 359 kts | 332° |
| 2026-04-27 16:28 | 44.82840 | 15.34713 | 27586 ft | 355 kts | 332° |
| 2026-04-27 16:29 | 44.89350 | 15.29904 | 26418 ft | 349 kts | 332° |
| 2026-04-27 16:30 | 44.93628 | 15.26742 | 25624 ft | 346 kts | 332° |
| 2026-04-27 16:30 | 44.97874 | 15.23587 | 24799 ft | 343 kts | 332° |
| 2026-04-27 16:31 | 45.04147 | 15.18901 | 23524 ft | 340 kts | 332° |
| 2026-04-27 16:31 | 45.08506 | 15.16468 | 22655 ft | 335 kts | 344° |
| 2026-04-27 16:32 | 45.12972 | 15.14744 | 21828 ft | 330 kts | 344° |
| 2026-04-27 16:32 | 45.15185 | 15.13889 | 21410 ft | 328 kts | 344° |
| 2026-04-27 16:33 | 45.19572 | 15.12196 | 20599 ft | 325 kts | 344° |
| 2026-04-27 16:33 | 45.21754 | 15.11364 | 20199 ft | 324 kts | 344° |
| 2026-04-27 16:33 | 45.23926 | 15.10536 | 19787 ft | 322 kts | 344° |
| 2026-04-27 16:33 | 45.26063 | 15.09719 | 19388 ft | 321 kts | 343° |
| 2026-04-27 16:34 | 45.28221 | 15.08895 | 18991 ft | 320 kts | 344° |
| 2026-04-27 16:34 | 45.30373 | 15.08073 | 18584 ft | 319 kts | 344° |
| 2026-04-27 16:34 | 45.32518 | 15.07253 | 18152 ft | 319 kts | 343° |
| 2026-04-27 16:34 | 45.34653 | 15.06435 | 17739 ft | 316 kts | 343° |
| 2026-04-27 16:35 | 45.36772 | 15.05622 | 17345 ft | 314 kts | 343° |
| 2026-04-27 16:35 | 45.38876 | 15.04815 | 16952 ft | 312 kts | 343° |
| 2026-04-27 16:35 | 45.43028 | 15.03215 | 16176 ft | 309 kts | 343° |
| 2026-04-27 16:36 | 45.45100 | 15.02416 | 15804 ft | 308 kts | 343° |
| 2026-04-27 16:36 | 45.47165 | 15.01620 | 15415 ft | 307 kts | 343° |
| 2026-04-27 16:36 | 45.49220 | 15.00825 | 15043 ft | 306 kts | 341° |
| 2026-04-27 16:36 | 45.51209 | 14.99787 | 14672 ft | 303 kts | 337° |
| 2026-04-27 16:37 | 45.53180 | 14.98702 | 14289 ft | 303 kts | 337° |
| 2026-04-27 16:37 | 45.55146 | 14.97624 | 13910 ft | 303 kts | 337° |
| 2026-04-27 16:37 | 45.57110 | 14.96551 | 13492 ft | 301 kts | 337° |
| 2026-04-27 16:37 | 45.59063 | 14.95487 | 13120 ft | 299 kts | 337° |
| 2026-04-27 16:38 | 45.61003 | 14.94427 | 12750 ft | 298 kts | 337° |
| 2026-04-27 16:38 | 45.62906 | 14.93384 | 12386 ft | 296 kts | 337° |
| 2026-04-27 16:38 | 45.64823 | 14.92334 | 12019 ft | 294 kts | 337° |
| 2026-04-27 16:38 | 45.66730 | 14.91288 | 11650 ft | 293 kts | 337° |
| 2026-04-27 16:39 | 45.68628 | 14.90245 | 11288 ft | 291 kts | 337° |
| 2026-04-27 16:39 | 45.70516 | 14.89207 | 10917 ft | 290 kts | 337° |
| 2026-04-27 16:39 | 45.72412 | 14.88163 | 10470 ft | 292 kts | 337° |
| 2026-04-27 16:39 | 45.74314 | 14.87116 | 10100 ft | 292 kts | 337° |
| 2026-04-27 16:40 | 45.76174 | 14.86093 | 9806 ft | 285 kts | 337° |
| 2026-04-27 16:40 | 45.77993 | 14.85093 | 9369 ft | 275 kts | 337° |
| 2026-04-27 16:40 | 45.79740 | 14.84129 | 9023 ft | 263 kts | 336° |
| 2026-04-27 16:40 | 45.81417 | 14.83202 | 8701 ft | 256 kts | 336° |
| 2026-04-27 16:41 | 45.83083 | 14.82279 | 8379 ft | 257 kts | 336° |
| 2026-04-27 16:41 | 45.84751 | 14.81355 | 8057 ft | 257 kts | 336° |
| 2026-04-27 16:41 | 45.86418 | 14.80433 | 7732 ft | 256 kts | 336° |
| 2026-04-27 16:41 | 45.88083 | 14.79511 | 7413 ft | 256 kts | 336° |
| 2026-04-27 16:42 | 45.89759 | 14.78580 | 7091 ft | 259 kts | 335° |
| 2026-04-27 16:42 | 45.91435 | 14.77646 | 6769 ft | 258 kts | 336° |
| 2026-04-27 16:42 | 45.93111 | 14.76714 | 6445 ft | 259 kts | 336° |
| 2026-04-27 16:42 | 45.94772 | 14.75791 | 6149 ft | 257 kts | 336° |
| 2026-04-27 16:43 | 45.96424 | 14.74872 | 5819 ft | 249 kts | 337° |
| 2026-04-27 16:43 | 45.97992 | 14.74003 | 5622 ft | 235 kts | 336° |
| 2026-04-27 16:43 | 45.99478 | 14.73178 | 5363 ft | 224 kts | 338° |
| 2026-04-27 16:43 | 46.00914 | 14.72379 | 5111 ft | 220 kts | 338° |
| 2026-04-27 16:44 | 46.02344 | 14.71581 | 5000 ft | 218 kts | 338° |
| 2026-04-27 16:44 | 46.03733 | 14.70807 | 4897 ft | 210 kts | 337° |
| 2026-04-27 16:44 | 46.05075 | 14.70059 | 4801 ft | 204 kts | 338° |
| 2026-04-27 16:44 | 46.06385 | 14.69329 | 4710 ft | 201 kts | 338° |
| 2026-04-27 16:45 | 46.07686 | 14.68604 | 4623 ft | 200 kts | 338° |
| 2026-04-27 16:45 | 46.08971 | 14.67888 | 4536 ft | 201 kts | 338° |
| 2026-04-27 16:45 | 46.10275 | 14.67160 | 4450 ft | 201 kts | 339° |
| 2026-04-27 16:45 | 46.11517 | 14.66348 | 4385 ft | 189 kts | 326° |
| 2026-04-27 16:46 | 46.12456 | 14.65060 | 4145 ft | 186 kts | 306° |
| 2026-04-27 16:46 | 46.13220 | 14.63568 | 3896 ft | 184 kts | 307° |
| 2026-04-27 16:46 | 46.13985 | 14.62087 | 3653 ft | 183 kts | 307° |
| 2026-04-27 16:46 | 46.14746 | 14.60612 | 3418 ft | 183 kts | 307° |
| 2026-04-27 16:47 | 46.15498 | 14.59151 | 3183 ft | 182 kts | 306° |
| 2026-04-27 16:47 | 46.16235 | 14.57718 | 2936 ft | 172 kts | 306° |
| 2026-04-27 16:47 | 46.16928 | 14.56370 | 2719 ft | 162 kts | 307° |
| 2026-04-27 16:47 | 46.17585 | 14.55091 | 2529 ft | 154 kts | 307° |
| 2026-04-27 16:48 | 46.18217 | 14.53860 | 2315 ft | 152 kts | 307° |
| 2026-04-27 16:48 | 46.18846 | 14.52634 | 2109 ft | 152 kts | 307° |
| 2026-04-27 16:48 | 46.19470 | 14.51405 | 1903 ft | 151 kts | 304° |
| 2026-04-27 16:49 | 46.20690 | 14.49020 | 1498 ft | 145 kts | 308° |
| 2026-04-27 16:49 | 46.21295 | 14.47859 | 1305 ft | 145 kts | 307° |
| 2026-04-27 16:49 | 46.21874 | 14.46728 | 1224 ft | 125 kts | 306° |
| 2026-04-27 16:49 | 46.22286 | 14.45924 | 1251 ft | 75 kts | 306° |
| 2026-04-27 16:50 | 46.22487 | 14.45544 | 1247 ft | 27 kts | 313° |
| 2026-04-27 16:50 | 46.22618 | 14.45400 | 1252 ft | 23 kts | 334° |
| 2026-04-27 16:50 | 46.22763 | 14.45329 | 1259 ft | 18 kts | 348° |
| 2026-04-27 16:50 | 46.22854 | 14.45330 | 1264 ft | 13 kts | 25° |
| 2026-04-27 16:51 | 46.22932 | 14.45403 | 1264 ft | 9 kts | 20° |
| 2026-04-27 16:51 | 46.22983 | 14.45350 | 1263 ft | 11 kts | 308° |
| 2026-04-27 16:51 | 46.23011 | 14.45334 | 1262 ft | 2 kts | 23° |
| 2026-04-27 16:51 | 46.23036 | 14.45357 | 1261 ft | 2 kts | 36° |
| 2026-04-27 16:52 | 46.23047 | 14.45368 | 1261 ft | 2 kts | 36° |
| 2026-04-27 16:52 | 46.23051 | 14.45372 | 1260 ft | 0 kts | 36° |